»·PEaware :: N412FR KASE-KGJT

N412FR :: KASE-KGJT

FLIGHT INFORMATION

Flight Status: Arrived
Operator: Privately registered:
United States
More flights under this callsign
Pilot: Christian E. (23964)
Aircraft: CESSNA 550 CITATION 2/S2/BRAVO
(C550)
More flights by this aircraft type
Origin: KASE Aspen-Pitkin Co/Sardy
United States
Destination: KGJT Grand Junction Regl
United States
More flights between these airports :: More routes between these airports
Route: LINDZ9 JNC
File this flight plan on PilotEdge
Remarks:
Altitude:
(Current/Filed)
16,000ft
Speed:
(Current/Filed)
320kts
Departed: 23-Feb-21 08:47 AM
Arrived: 23-Feb-21 09:27 AM
Distance/Time
Traveled:
78nm/0:40
Distance/Time
To Go:
Arrived

Flight Plot

Page will automatically refresh every two minutes.

Flight plan parsing failed; only flown route is shown


Map Options




Map Legend


Flown Route
Filed Route
Departure Airport
Arrival Airport
Navaid (VOR, NDB)
Fix

Horizontal Profiles

Position Reports

Time Latitude Longitude Heading Altitude Ground
Speed
23-Feb-21 08:13 39.228289 -106.869210 249 7842ft 0kts
23-Feb-21 08:14 39.228289 -106.869210 249 7842ft 0kts
23-Feb-21 08:15 39.228289 -106.869210 249 7842ft 0kts
23-Feb-21 08:16 39.228289 -106.869210 249 7842ft 0kts
23-Feb-21 08:17 39.228289 -106.869210 249 7842ft 0kts
23-Feb-21 08:18 39.228289 -106.869210 249 7842ft 0kts
23-Feb-21 08:19 39.228289 -106.869210 249 7842ft 0kts
23-Feb-21 08:20 39.228289 -106.869210 249 7842ft 0kts
23-Feb-21 08:21 39.228289 -106.869210 249 7842ft 0kts
23-Feb-21 08:22 39.228289 -106.869210 249 7842ft 0kts
23-Feb-21 08:23 39.228289 -106.869210 249 7842ft 0kts
23-Feb-21 08:24 39.228289 -106.869210 249 7842ft 0kts
23-Feb-21 08:25 39.228289 -106.869210 249 7842ft 0kts
23-Feb-21 08:26 39.228289 -106.869210 249 7842ft 0kts
23-Feb-21 08:27 39.228289 -106.869210 249 7842ft 0kts
23-Feb-21 08:28 39.228289 -106.869210 249 7842ft 0kts
23-Feb-21 08:29 39.228289 -106.869210 249 7842ft 0kts
23-Feb-21 08:30 39.228289 -106.869210 249 7842ft 0kts
23-Feb-21 08:31 39.228289 -106.869210 249 7842ft 0kts
23-Feb-21 08:32 39.228289 -106.869210 249 7842ft 0kts
23-Feb-21 08:33 39.228289 -106.869210 249 7842ft 0kts
23-Feb-21 08:34 39.228289 -106.869210 249 7842ft 0kts
23-Feb-21 08:35 39.228289 -106.869210 249 7842ft 0kts
23-Feb-21 08:36 39.228288 -106.869216 249 7842ft 0kts
23-Feb-21 08:37 39.228014 -106.869900 161 7842ft 5kts
23-Feb-21 08:38 39.226430 -106.869137 160 7842ft 1kts
23-Feb-21 08:39 39.224440 -106.868199 160 7842ft 6kts
23-Feb-21 08:40 39.221394 -106.866753 159 7842ft 16kts
23-Feb-21 08:41 39.218660 -106.865456 160 7842ft 9kts
23-Feb-21 08:42 39.215122 -106.863775 159 7842ft 13kts
23-Feb-21 08:43 39.212277 -106.862433 170 7842ft 0kts
23-Feb-21 08:44 39.211826 -106.862718 244 7842ft 8kts
23-Feb-21 08:45 39.211800 -106.863447 337 7842ft 2kts
23-Feb-21 08:46 39.225414 -106.869996 339 8050ft 120kts
23-Feb-21 08:47 39.261897 -106.878767 323 9900ft 153kts
23-Feb-21 08:48 39.274872 -106.930762 282 12373ft 167kts
23-Feb-21 08:50 39.287646 -106.993994 282 14521ft 194kts
23-Feb-21 08:51 39.318772 -107.055331 302 16003ft 244kts
23-Feb-21 08:52 39.366198 -107.129209 305 16000ft 286kts
23-Feb-21 08:53 39.417482 -107.211478 285 15997ft 296kts
23-Feb-21 08:54 39.377428 -107.300171 228 15997ft 308kts
23-Feb-21 08:55 39.340662 -107.393053 259 15950ft 297kts
23-Feb-21 08:56 39.322975 -107.497288 257 15922ft 295kts
23-Feb-21 08:57 39.302406 -107.599602 257 15921ft 294kts
23-Feb-21 08:58 39.282018 -107.701909 256 15929ft 294kts
23-Feb-21 08:59 39.261741 -107.804557 256 15928ft 295kts
23-Feb-21 09:00 39.241615 -107.906209 256 15771ft 280kts
23-Feb-21 09:01 39.223254 -107.994665 257 14457ft 233kts
23-Feb-21 09:02 39.208120 -108.070893 257 13001ft 212kts
23-Feb-21 09:03 39.192977 -108.145424 257 12969ft 229kts
23-Feb-21 09:04 39.177225 -108.223236 257 12989ft 219kts
23-Feb-21 09:05 39.161830 -108.298364 257 12997ft 216kts
23-Feb-21 09:06 39.147072 -108.370564 257 12103ft 207kts
23-Feb-21 09:07 39.133304 -108.439352 254 11999ft 200kts
23-Feb-21 09:08 39.114739 -108.509496 255 11998ft 212kts
23-Feb-21 09:09 39.097516 -108.583524 256 11997ft 219kts
23-Feb-21 09:10 39.082683 -108.660137 258 12000ft 222kts
23-Feb-21 09:11 39.035580 -108.673021 140 11866ft 224kts
23-Feb-21 09:11 38.998122 -108.628110 139 10612ft 217kts
23-Feb-21 09:13 38.951288 -108.573557 140 9996ft 171kts
23-Feb-21 09:14 38.918754 -108.535362 139 9996ft 147kts
23-Feb-21 09:15 38.885131 -108.495899 140 10004ft 177kts
23-Feb-21 09:16 38.846364 -108.455347 141 10027ft 181kts
23-Feb-21 09:16 38.840863 -108.405992 76 10033ft 183kts
23-Feb-21 09:17 38.858697 -108.346711 68 9991ft 166kts
23-Feb-21 09:18 38.889925 -108.320171 350 9315ft 150kts
23-Feb-21 09:20 38.930583 -108.348157 321 8286ft 140kts
23-Feb-21 09:20 38.956886 -108.368044 327 7426ft 129kts
23-Feb-21 09:21 38.987285 -108.395117 321 7249ft 144kts
23-Feb-21 09:22 39.020803 -108.425090 321 7044ft 145kts
23-Feb-21 09:23 39.053065 -108.455134 330 6771ft 138kts
23-Feb-21 09:24 39.083713 -108.481437 324 6078ft 128kts
23-Feb-21 09:25 39.113284 -108.506357 324 5162ft 131kts
23-Feb-21 09:26 39.126519 -108.528995 300 4807ft 23kts
23-Feb-21 09:27 39.125855 -108.530449 212 4807ft 6kts
23-Feb-21 09:28 39.125619 -108.531584 327 4807ft 7kts
23-Feb-21 09:29 39.125635 -108.531790 128 4807ft 0kts
23-Feb-21 09:30 39.125635 -108.531790 128 4807ft 0kts
23-Feb-21 09:31 39.125635 -108.531790 128 4807ft 0kts
23-Feb-21 09:32 39.125635 -108.531790 128 4807ft 0kts

Navigation Log

Ident Type
Flight plan parsing failed, navigation log unavailable